logo
Search for airport 
image banner adimage banner adimage banner ad
image banner ad

ESFROL - Stockholm/Frölunda

Located in , Sweden

ICAO - , IATA -

Data provided by Airmate  

General information

Coordinates: N59°27'31" E17°42'25"
Elevation is 30 feet MSL.
 
View others Airports in Stockholms län

Operational data

Special qualification required
Current time UTC:
Current local time:
Weather at : ESSB - Stockholm/Bromma ( 18 km )
METAR: ESSB 130550Z 21003KT 160V240 9999 BKN010 10/08 Q1011
TAF: TAF ESSB 130530Z 1306/1315 25011KT 9999 OVC010 PROB40 1306/1310 OVC008 BECMG 1310/1312 BKN020 PROB40 1310/1312 SHRA BKN030CB
View NOTAMs / SUP AIP / TFR affecting this airport [VIEW]
Communications frequencies: [VIEW]

Runways:

RWY identifierQFULength (ft)Width (ft)SurfaceLDA (ft)
16160°246198GRASS
34340°246198GRASS
0774°147698GRASS
25254°147698GRASS

Airport contact information

Address: Sweden

Satellite view of ESFROL